createdAt,value
2022-12-03T00:00:29.755Z,23.03
2022-12-03T00:02:56.260Z,22.40
2022-12-03T00:05:22.823Z,17.65
2022-12-03T00:07:49.285Z,22.05
2022-12-03T00:10:15.746Z,23.27
2022-12-03T00:12:42.172Z,21.80
2022-12-03T00:15:09.458Z,20.17
2022-12-03T00:17:36.144Z,21.98
2022-12-03T00:20:02.912Z,23.40
2022-12-03T00:22:29.260Z,21.58
2022-12-03T00:24:55.991Z,23.17
2022-12-03T00:27:22.516Z,21.73
2022-12-03T00:29:48.919Z,19.20
2022-12-03T00:32:15.277Z,24.15
2022-12-03T00:34:41.698Z,19.30
2022-12-03T00:37:08.063Z,20.07
2022-12-03T00:39:34.430Z,21.52
2022-12-03T00:42:00.793Z,20.27
2022-12-03T00:44:27.207Z,20.45
2022-12-03T00:46:53.634Z,19.35
2022-12-03T00:49:20.032Z,23.20
2022-12-03T00:51:46.462Z,23.55
2022-12-03T00:54:12.840Z,22.73
2022-12-03T00:56:39.291Z,21.80
2022-12-03T00:59:05.654Z,22.08
2022-12-03T01:01:32.140Z,21.43
2022-12-03T01:03:58.616Z,19.85
2022-12-03T01:06:25.257Z,19.45
2022-12-03T01:08:51.770Z,21.48
2022-12-03T01:11:36.822Z,22.77
2022-12-03T01:14:24.171Z,21.47
2022-12-03T01:16:50.604Z,21.80
2022-12-03T01:19:17.255Z,24.42
2022-12-03T01:21:51.579Z,23.23
2022-12-03T01:24:19.277Z,24.85
2022-12-03T01:26:45.702Z,21.67
2022-12-03T01:29:12.212Z,21.38
2022-12-03T01:31:57.258Z,22.33
2022-12-03T01:34:23.684Z,23.00
2022-12-03T01:36:52.333Z,17.25
2022-12-03T01:39:19.457Z,19.97
2022-12-03T01:41:48.133Z,20.65
2022-12-03T01:44:18.789Z,23.35
2022-12-03T01:46:46.494Z,20.13
2022-12-03T01:49:23.354Z,21.15
2022-12-03T01:51:51.685Z,21.53
2022-12-03T01:54:22.359Z,23.08
2022-12-03T01:56:49.228Z,19.20
2022-12-03T01:59:18.419Z,19.27
2022-12-03T02:01:45.402Z,23.42
2022-12-03T02:04:14.261Z,20.77
2022-12-03T02:06:42.168Z,26.38
2022-12-03T02:09:13.125Z,25.02
2022-12-03T02:11:44.278Z,23.38
2022-12-03T02:14:17.046Z,23.33
2022-12-03T02:16:45.358Z,30.07
2022-12-03T02:19:41.311Z,21.63
2022-12-03T02:22:32.349Z,23.33
2022-12-03T02:25:33.174Z,21.30
2022-12-03T02:28:00.774Z,22.75
2022-12-03T02:30:28.912Z,19.23
2022-12-03T02:32:56.271Z,20.20
2022-12-03T02:35:26.604Z,23.60
2022-12-03T02:38:02.594Z,22.00
2022-12-03T02:40:32.588Z,21.58
2022-12-03T02:43:02.241Z,24.67
2022-12-03T02:45:39.471Z,27.05
2022-12-03T02:48:26.181Z,23.88
2022-12-03T02:50:59.306Z,23.10
2022-12-03T02:53:33.205Z,20.25
2022-12-03T02:56:01.608Z,21.63
2022-12-03T02:58:31.264Z,24.42
2022-12-03T03:00:59.234Z,19.58
2022-12-03T03:03:28.605Z,19.90
2022-12-03T03:05:56.683Z,21.45
2022-12-03T03:08:25.315Z,21.47
2022-12-03T03:10:52.175Z,20.40
2022-12-03T03:13:21.422Z,20.35
2022-12-03T03:15:48.388Z,22.35
2022-12-03T03:18:15.321Z,18.95
2022-12-03T03:20:42.413Z,18.10
2022-12-03T03:23:11.643Z,18.30
2022-12-03T03:25:43.626Z,22.00
2022-12-03T03:28:10.429Z,18.75
2022-12-03T03:30:39.017Z,21.15
2022-12-03T03:33:05.520Z,26.07
2022-12-03T03:35:32.221Z,21.45
2022-12-03T03:37:59.604Z,24.17
2022-12-03T03:40:26.903Z,19.63
2022-12-03T03:42:53.982Z,21.95
2022-12-03T03:45:25.710Z,24.20
2022-12-03T03:47:57.306Z,21.17
2022-12-03T03:50:24.111Z,20.60
2022-12-03T03:52:50.735Z,22.27
2022-12-03T03:55:19.033Z,21.83
2022-12-03T03:57:45.531Z,26.33
2022-12-03T04:00:12.575Z,24.85
2022-12-03T04:02:40.294Z,25.63
2022-12-03T04:05:07.769Z,19.35
2022-12-03T04:07:34.258Z,22.67
2022-12-03T04:10:20.703Z,24.37
2022-12-03T04:12:56.056Z,22.10
2022-12-03T04:15:22.901Z,24.27
2022-12-03T04:18:08.289Z,21.90
2022-12-03T04:20:34.700Z,23.58
2022-12-03T04:23:01.065Z,23.23
2022-12-03T04:25:46.340Z,24.02
2022-12-03T04:28:31.403Z,22.05
2022-12-03T04:30:57.935Z,23.95
2022-12-03T04:33:43.170Z,25.73
2022-12-03T04:36:10.285Z,24.20
2022-12-03T04:38:36.683Z,23.77
2022-12-03T04:41:06.136Z,23.30
2022-12-03T04:43:34.683Z,20.90
2022-12-03T04:46:02.647Z,21.30
2022-12-03T04:48:29.108Z,21.97
2022-12-03T04:50:55.495Z,24.20
2022-12-03T04:53:21.925Z,25.15
2022-12-03T04:55:48.515Z,29.10
2022-12-03T04:58:14.970Z,21.48
2022-12-03T05:00:41.429Z,25.97
2022-12-03T05:03:07.859Z,20.30
2022-12-03T05:05:34.328Z,23.02
2022-12-03T05:08:00.813Z,23.50
2022-12-03T05:10:27.272Z,26.65
2022-12-03T05:12:53.768Z,21.70
2022-12-03T05:15:20.160Z,24.55
2022-12-03T05:17:46.550Z,24.30
2022-12-03T05:20:32.060Z,32.53
2022-12-03T05:22:58.482Z,25.48
2022-12-03T05:25:24.839Z,29.57
2022-12-03T05:27:51.190Z,27.67
2022-12-03T05:30:17.739Z,25.27
2022-12-03T05:32:44.216Z,27.27
2022-12-03T05:35:10.977Z,26.48
2022-12-03T05:37:37.481Z,27.77
2022-12-03T05:40:04.361Z,27.75
2022-12-03T05:42:49.470Z,27.70
2022-12-03T05:45:15.927Z,29.75
2022-12-03T05:47:42.480Z,24.10
2022-12-03T05:50:08.993Z,30.10
2022-12-03T05:52:35.426Z,32.17
2022-12-03T05:55:02.122Z,25.05
2022-12-03T05:57:28.529Z,27.95
2022-12-03T05:59:54.941Z,33.72
2022-12-03T06:02:21.585Z,30.33
2022-12-03T06:04:48.187Z,32.50
2022-12-03T06:07:14.579Z,32.70
2022-12-03T06:09:41.148Z,32.50
2022-12-03T06:12:08.683Z,32.80
2022-12-03T06:14:35.718Z,33.07
2022-12-03T06:17:03.021Z,31.23
2022-12-03T06:19:29.427Z,27.52
2022-12-03T06:21:56.074Z,28.08
2022-12-03T06:24:22.514Z,28.98
2022-12-03T06:26:48.879Z,28.83
2022-12-03T06:29:15.302Z,25.55
2022-12-03T06:31:41.937Z,28.98
2022-12-03T06:34:08.499Z,26.90
2022-12-03T06:36:34.977Z,26.80
2022-12-03T06:39:01.372Z,23.43
2022-12-03T06:41:27.760Z,24.00
2022-12-03T06:43:54.187Z,25.92
2022-12-03T06:46:20.686Z,23.48
2022-12-03T06:48:47.135Z,26.30
2022-12-03T06:51:13.535Z,21.97
2022-12-03T06:53:39.922Z,21.85
2022-12-03T06:56:06.568Z,25.20
2022-12-03T06:58:32.921Z,25.90
2022-12-03T07:00:59.279Z,28.15
2022-12-03T07:03:25.739Z,25.07
2022-12-03T07:05:52.175Z,27.80
2022-12-03T07:08:18.635Z,21.75
2022-12-03T07:10:45.088Z,26.08
2022-12-03T07:13:11.538Z,22.27
2022-12-03T07:15:37.985Z,24.53
2022-12-03T07:18:04.537Z,20.58
2022-12-03T07:20:30.945Z,23.70
2022-12-03T07:22:57.328Z,24.88
2022-12-03T07:25:23.993Z,24.65
2022-12-03T07:27:50.739Z,21.83
2022-12-03T07:30:17.796Z,21.25
2022-12-03T07:32:44.227Z,25.80
2022-12-03T07:35:10.628Z,23.45
2022-12-03T07:37:37.030Z,24.20
2022-12-03T07:40:04.400Z,23.50
2022-12-03T07:42:30.867Z,24.45
2022-12-03T07:44:57.280Z,20.75
2022-12-03T07:47:23.745Z,22.70
2022-12-03T07:49:50.150Z,27.83
2022-12-03T07:52:16.573Z,22.20
2022-12-03T07:54:42.978Z,26.05
2022-12-03T07:57:09.465Z,22.98
2022-12-03T07:59:35.845Z,20.88
2022-12-03T08:02:02.641Z,22.58
2022-12-03T08:04:29.441Z,24.47
2022-12-03T08:06:56.000Z,20.92
2022-12-03T08:09:22.679Z,26.52
2022-12-03T08:11:49.411Z,22.20
2022-12-03T08:14:19.217Z,24.15
2022-12-03T08:16:47.720Z,25.10
2022-12-03T08:19:16.098Z,29.05
2022-12-03T08:21:43.216Z,24.10
2022-12-03T08:24:18.387Z,25.63
2022-12-03T08:26:46.706Z,29.10
2022-12-03T08:29:16.992Z,26.20
2022-12-03T08:31:55.304Z,26.08
2022-12-03T08:34:24.222Z,25.38
2022-12-03T08:37:05.877Z,22.98
2022-12-03T08:39:35.742Z,32.45
2022-12-03T08:42:37.431Z,26.97
2022-12-03T08:45:31.896Z,26.58
2022-12-03T08:48:00.388Z,24.90
2022-12-03T08:50:33.516Z,33.30
2022-12-03T08:53:28.461Z,29.52
2022-12-03T08:56:00.132Z,28.20
2022-12-03T08:58:36.872Z,29.40
2022-12-03T09:01:03.327Z,29.40
2022-12-03T09:03:31.497Z,30.40
2022-12-03T09:05:58.333Z,30.15
2022-12-03T09:08:24.715Z,29.90
2022-12-03T09:10:51.229Z,31.13
2022-12-03T09:13:17.618Z,30.90
2022-12-03T09:15:44.053Z,28.05
2022-12-03T09:18:10.573Z,28.58
2022-12-03T09:20:36.992Z,31.10
2022-12-03T09:23:03.522Z,31.55
2022-12-03T09:25:29.897Z,30.67
2022-12-03T09:27:56.275Z,28.08
2022-12-03T09:30:22.853Z,30.63
2022-12-03T09:32:49.443Z,30.80
2022-12-03T09:35:16.225Z,27.90
2022-12-03T09:37:42.625Z,29.80
2022-12-03T09:40:10.317Z,34.67
2022-12-03T09:42:37.988Z,29.08
2022-12-03T09:45:12.295Z,33.33
2022-12-03T09:47:42.615Z,29.55
2022-12-03T09:50:14.266Z,29.45
2022-12-03T09:52:40.639Z,32.50
2022-12-03T09:55:20.896Z,30.67
2022-12-03T09:57:47.752Z,29.17
2022-12-03T10:00:16.860Z,31.33
2022-12-03T10:02:43.282Z,29.95
2022-12-03T10:05:09.852Z,26.77
2022-12-03T10:07:37.002Z,28.27
2022-12-03T10:10:04.096Z,31.13
2022-12-03T10:12:30.575Z,30.98
2022-12-03T10:14:57.164Z,33.00
2022-12-03T10:17:23.723Z,35.33
2022-12-03T10:19:50.255Z,29.17
2022-12-03T10:22:16.709Z,28.57
2022-12-03T10:24:44.808Z,31.08
2022-12-03T10:27:24.903Z,34.42
2022-12-03T10:29:59.139Z,27.13
2022-12-03T10:32:50.127Z,25.20
2022-12-03T10:35:22.715Z,30.07
2022-12-03T10:38:03.612Z,27.35
2022-12-03T10:40:32.606Z,26.77
2022-12-03T10:43:17.740Z,25.35
2022-12-03T10:46:04.360Z,30.05
2022-12-03T10:48:31.284Z,31.73
2022-12-03T10:51:10.680Z,25.80
2022-12-03T10:53:40.251Z,27.70
2022-12-03T10:56:11.959Z,28.35
2022-12-03T10:58:40.399Z,28.88
2022-12-03T11:01:18.240Z,24.87
2022-12-03T11:03:45.388Z,29.30
2022-12-03T11:06:20.430Z,31.60
2022-12-03T11:08:57.137Z,29.63
2022-12-03T11:11:28.639Z,27.17
2022-12-03T11:13:54.994Z,23.70
2022-12-03T11:16:39.610Z,32.90
2022-12-03T11:19:33.247Z,26.52
2022-12-03T11:22:05.672Z,30.75
2022-12-03T11:24:40.073Z,28.10
2022-12-03T11:27:16.435Z,29.87
2022-12-03T11:30:01.889Z,29.52
2022-12-03T11:32:43.614Z,29.23
2022-12-03T11:35:27.741Z,28.23
2022-12-03T11:37:54.423Z,26.10
2022-12-03T11:40:20.684Z,25.20
2022-12-03T11:42:48.988Z,25.23
2022-12-03T11:45:30.323Z,25.00
2022-12-03T11:48:02.146Z,28.88
2022-12-03T11:50:40.343Z,29.10
2022-12-03T11:53:16.130Z,22.57
2022-12-03T11:55:52.038Z,27.65
2022-12-03T11:58:25.462Z,21.00
2022-12-03T12:01:00.085Z,19.75
2022-12-03T12:03:32.697Z,22.45
2022-12-03T12:06:11.041Z,23.60
2022-12-03T12:08:50.717Z,23.85
2022-12-03T12:11:36.543Z,28.42
2022-12-03T12:14:04.833Z,23.33
2022-12-03T12:16:41.017Z,22.40
2022-12-03T12:19:37.190Z,24.23
2022-12-03T12:22:12.604Z,22.73
2022-12-03T12:24:48.172Z,22.58
2022-12-03T12:27:21.433Z,27.75
2022-12-03T12:29:56.671Z,30.23
2022-12-03T12:32:29.675Z,25.23
2022-12-03T12:35:12.438Z,31.45
2022-12-03T12:37:58.076Z,32.28
2022-12-03T12:40:31.792Z,28.10
2022-12-03T12:43:11.758Z,35.05
2022-12-03T12:45:42.941Z,26.53
2022-12-03T12:48:26.276Z,31.67
2022-12-03T12:51:10.818Z,29.05
2022-12-03T12:53:39.357Z,29.33
2022-12-03T12:56:28.190Z,36.30
2022-12-03T12:59:09.274Z,28.73
2022-12-03T13:01:36.271Z,30.33
2022-12-03T13:04:13.762Z,30.08
2022-12-03T13:06:40.744Z,32.85
2022-12-03T13:09:26.943Z,31.92
2022-12-03T13:11:59.084Z,28.17
2022-12-03T13:14:43.206Z,28.77
2022-12-03T13:17:19.036Z,28.95
2022-12-03T13:19:48.464Z,35.38
2022-12-03T13:22:21.720Z,29.00
2022-12-03T13:24:54.311Z,36.07
2022-12-03T13:27:34.734Z,33.72
2022-12-03T13:30:23.274Z,37.65
2022-12-03T13:32:49.704Z,40.03
2022-12-03T13:35:26.778Z,34.30
2022-12-03T13:37:53.555Z,38.63
2022-12-03T13:40:31.721Z,38.03
2022-12-03T13:42:59.048Z,36.30
2022-12-03T13:45:36.812Z,39.50
2022-12-03T13:48:18.637Z,37.08
2022-12-03T13:50:46.054Z,32.30
2022-12-03T13:53:41.811Z,30.63
2022-12-03T13:56:30.790Z,39.25
2022-12-03T13:59:00.091Z,33.30
2022-12-03T14:01:27.877Z,30.23
2022-12-03T14:03:54.333Z,33.83
2022-12-03T14:06:20.780Z,30.70
2022-12-03T14:08:47.164Z,30.75
2022-12-03T14:11:33.582Z,32.80
2022-12-03T14:14:00.128Z,34.70
2022-12-03T14:16:26.750Z,31.57
2022-12-03T14:18:53.201Z,26.88
2022-12-03T14:21:19.629Z,29.38
2022-12-03T14:23:46.174Z,27.48
2022-12-03T14:26:12.613Z,25.38
2022-12-03T14:28:39.012Z,23.90
2022-12-03T14:31:05.538Z,27.55
2022-12-03T14:33:31.898Z,25.30
2022-12-03T14:35:58.773Z,27.25
2022-12-03T14:38:25.194Z,28.27
2022-12-03T14:40:51.689Z,25.23
2022-12-03T14:43:18.074Z,25.08
2022-12-03T14:45:44.567Z,24.30
2022-12-03T14:48:11.002Z,22.38
2022-12-03T14:50:37.457Z,27.35
2022-12-03T14:53:03.872Z,25.97
2022-12-03T14:55:30.347Z,23.67
2022-12-03T14:57:56.670Z,22.23
2022-12-03T15:00:23.004Z,25.70
2022-12-03T15:02:49.467Z,25.77
2022-12-03T15:05:15.830Z,22.30
2022-12-03T15:07:42.300Z,26.17
2022-12-03T15:10:09.134Z,26.65
2022-12-03T15:12:35.572Z,24.15
2022-12-03T15:15:01.944Z,26.33
2022-12-03T15:17:31.996Z,26.67
2022-12-03T15:19:58.798Z,32.22
2022-12-03T15:22:25.282Z,31.25
2022-12-03T15:24:51.642Z,33.17
2022-12-03T15:27:18.028Z,33.55
2022-12-03T15:29:44.429Z,27.50
2022-12-03T15:32:10.966Z,28.30
2022-12-03T15:34:37.335Z,30.08
2022-12-03T15:37:03.726Z,28.60
2022-12-03T15:39:30.113Z,35.42
2022-12-03T15:41:56.555Z,32.93
2022-12-03T15:44:23.003Z,31.00
2022-12-03T15:46:49.438Z,35.55
2022-12-03T15:49:15.907Z,42.22
2022-12-03T15:51:42.456Z,31.85
2022-12-03T15:54:08.877Z,33.30
2022-12-03T15:56:37.573Z,31.70
2022-12-03T15:59:04.686Z,30.73
2022-12-03T16:01:31.254Z,36.78
2022-12-03T16:03:57.979Z,33.80
2022-12-03T16:06:24.482Z,37.80
2022-12-03T16:08:50.940Z,29.73
2022-12-03T16:11:17.660Z,32.92
2022-12-03T16:13:44.112Z,40.40
2022-12-03T16:16:10.639Z,34.58
2022-12-03T16:18:37.101Z,38.53
2022-12-03T16:21:03.537Z,34.05
2022-12-03T16:23:29.922Z,35.00
2022-12-03T16:25:56.372Z,36.10
2022-12-03T16:28:22.754Z,26.70
2022-12-03T16:30:49.204Z,32.47
2022-12-03T16:33:15.624Z,34.42
2022-12-03T16:35:42.041Z,34.13
2022-12-03T16:38:08.434Z,31.73
2022-12-03T16:40:34.826Z,36.25
2022-12-03T16:43:03.305Z,38.00
2022-12-03T16:45:29.851Z,32.15
2022-12-03T16:47:56.570Z,33.58
2022-12-03T16:50:29.580Z,34.75
2022-12-03T16:52:57.448Z,33.97
2022-12-03T16:55:23.949Z,33.60
2022-12-03T16:57:50.359Z,39.55
2022-12-03T17:00:17.161Z,37.13
2022-12-03T17:02:43.693Z,37.92
2022-12-03T17:05:10.244Z,35.13
2022-12-03T17:07:36.754Z,37.87
2022-12-03T17:10:04.175Z,40.95
2022-12-03T17:12:54.210Z,39.55
2022-12-03T17:15:17.060Z,39.55
2022-12-03T17:17:43.418Z,39.20
2022-12-03T17:20:12.493Z,41.30
2022-12-03T17:22:41.871Z,33.20
2022-12-03T17:25:08.971Z,35.60
2022-12-03T17:27:37.032Z,39.15
2022-12-03T17:30:06.614Z,38.25
2022-12-03T17:32:33.065Z,35.00
2022-12-03T17:34:59.678Z,38.85
2022-12-03T17:37:26.133Z,44.30
2022-12-03T17:39:52.873Z,46.30
2022-12-03T17:42:19.483Z,48.20
2022-12-03T17:44:45.845Z,46.83
2022-12-03T17:47:12.351Z,41.45
2022-12-03T17:49:38.698Z,34.78
2022-12-03T17:52:05.105Z,37.22
2022-12-03T17:54:49.327Z,37.50
2022-12-03T17:57:17.852Z,40.17
2022-12-03T17:59:44.260Z,35.55
2022-12-03T18:02:10.811Z,36.97
2022-12-03T18:04:37.251Z,40.92
2022-12-03T18:07:03.750Z,34.83
2022-12-03T18:09:30.299Z,35.10
2022-12-03T18:11:56.774Z,38.17
2022-12-03T18:14:23.151Z,42.47
2022-12-03T18:16:49.605Z,41.38
2022-12-03T18:19:16.472Z,38.33
2022-12-03T18:21:43.073Z,40.00
2022-12-03T18:24:09.772Z,35.80
2022-12-03T18:26:36.285Z,38.13
2022-12-03T18:29:03.328Z,40.28
2022-12-03T18:31:29.783Z,45.17
2022-12-03T18:33:56.239Z,39.93
2022-12-03T18:36:29.879Z,40.08
2022-12-03T18:38:58.388Z,33.70
2022-12-03T18:41:25.233Z,40.38
2022-12-03T18:43:51.964Z,36.78
2022-12-03T18:46:45.170Z,36.20
2022-12-03T18:49:05.973Z,39.15
2022-12-03T18:51:32.504Z,32.47
2022-12-03T18:53:59.163Z,33.67
2022-12-03T18:56:25.675Z,32.40
2022-12-03T18:58:52.303Z,35.47
2022-12-03T19:01:21.361Z,30.48
2022-12-03T19:03:49.225Z,40.40
2022-12-03T19:06:19.087Z,38.10
2022-12-03T19:08:46.792Z,35.50
2022-12-03T19:11:13.422Z,38.97
2022-12-03T19:13:51.881Z,39.78
2022-12-03T19:16:18.419Z,39.80
2022-12-03T19:18:45.009Z,38.20
2022-12-03T19:21:16.570Z,37.75
2022-12-03T19:24:04.173Z,39.30
2022-12-03T19:26:29.635Z,29.83
2022-12-03T19:28:56.110Z,36.10
2022-12-03T19:31:30.699Z,35.45
2022-12-03T19:33:57.353Z,38.70
2022-12-03T19:36:29.173Z,33.73
2022-12-03T19:38:57.844Z,37.35
2022-12-03T19:41:30.683Z,35.80
2022-12-03T19:43:58.001Z,32.35
2022-12-03T19:46:28.797Z,30.67
2022-12-03T19:48:55.217Z,36.97
2022-12-03T19:51:36.973Z,38.17
2022-12-03T19:54:07.562Z,34.03
2022-12-03T19:56:34.710Z,38.85
2022-12-03T19:59:01.115Z,34.75
2022-12-03T20:01:30.707Z,30.07
2022-12-03T20:03:59.385Z,39.65
2022-12-03T20:06:29.265Z,36.20
2022-12-03T20:08:57.954Z,33.25
2022-12-03T20:11:30.266Z,33.88
2022-12-03T20:14:00.108Z,38.17
2022-12-03T20:16:27.893Z,32.40
2022-12-03T20:18:59.943Z,38.58
2022-12-03T20:21:28.269Z,34.53
2022-12-03T20:23:54.759Z,35.05
2022-12-03T20:26:21.697Z,35.63
2022-12-03T20:28:48.336Z,36.50
2022-12-03T20:31:17.460Z,39.00
2022-12-03T20:33:46.573Z,34.33
2022-12-03T20:36:14.375Z,38.00
2022-12-03T20:38:41.223Z,30.93
2022-12-03T20:41:11.332Z,32.35
2022-12-03T20:43:38.294Z,34.90
2022-12-03T20:46:16.844Z,26.60
2022-12-03T20:48:44.294Z,33.55
2022-12-03T20:51:16.214Z,31.53
2022-12-03T20:53:43.239Z,31.98
2022-12-03T20:56:10.352Z,33.85
2022-12-03T20:58:36.858Z,26.95
2022-12-03T21:01:29.111Z,35.85
2022-12-03T21:03:57.292Z,33.83
2022-12-03T21:06:26.187Z,32.10
2022-12-03T21:08:54.566Z,34.83
2022-12-03T21:11:24.714Z,34.80
2022-12-03T21:13:52.345Z,29.45
2022-12-03T21:16:34.479Z,31.77
2022-12-03T21:19:09.689Z,40.33
2022-12-03T21:21:36.718Z,37.08
2022-12-03T21:24:03.247Z,30.45
2022-12-03T21:26:29.681Z,32.10
2022-12-03T21:28:56.301Z,31.73
2022-12-03T21:31:25.845Z,29.95
2022-12-03T21:33:53.525Z,35.10
2022-12-03T21:36:20.138Z,30.55
2022-12-03T21:38:47.016Z,33.75
2022-12-03T21:41:14.509Z,33.13
2022-12-03T21:43:41.764Z,33.97
2022-12-03T21:47:09.616Z,33.00
2022-12-03T21:48:56.094Z,32.33
2022-12-03T21:51:22.665Z,36.40
2022-12-03T21:53:49.245Z,36.93
2022-12-03T21:56:18.695Z,29.98
2022-12-03T21:58:46.106Z,35.17
2022-12-03T22:01:21.390Z,32.97
2022-12-03T22:03:48.170Z,33.72
2022-12-03T22:06:15.670Z,34.73
2022-12-03T22:08:42.754Z,31.33
2022-12-03T22:11:15.669Z,33.30
2022-12-03T22:13:42.255Z,30.38
2022-12-03T22:16:12.096Z,43.88
2022-12-03T22:18:38.866Z,30.63
2022-12-03T22:21:07.121Z,41.78
2022-12-03T22:23:34.136Z,34.95
2022-12-03T22:26:06.930Z,31.90
2022-12-03T22:28:34.231Z,34.63
2022-12-03T22:31:05.358Z,39.37
2022-12-03T22:33:32.099Z,37.97
2022-12-03T22:36:00.554Z,31.50
2022-12-03T22:38:28.644Z,32.30
2022-12-03T22:40:55.242Z,37.10
2022-12-03T22:43:22.090Z,36.90
2022-12-03T22:45:52.345Z,34.70
2022-12-03T22:48:18.762Z,36.50
2022-12-03T22:50:47.272Z,36.17
2022-12-03T22:53:14.704Z,37.45
2022-12-03T22:55:42.127Z,35.50
2022-12-03T22:58:09.866Z,36.63
2022-12-03T23:00:39.145Z,40.13
2022-12-03T23:03:06.787Z,37.30
2022-12-03T23:05:36.860Z,36.85
2022-12-03T23:08:05.347Z,32.33
2022-12-03T23:10:36.372Z,32.85
2022-12-03T23:13:03.322Z,36.70
2022-12-03T23:15:29.871Z,31.90
2022-12-03T23:17:56.967Z,33.90
2022-12-03T23:20:24.043Z,35.53
2022-12-03T23:22:51.364Z,36.47
2022-12-03T23:25:18.657Z,39.67
2022-12-03T23:27:45.848Z,35.25
2022-12-03T23:30:15.101Z,35.78
2022-12-03T23:32:44.318Z,38.40
2022-12-03T23:35:12.128Z,38.42
2022-12-03T23:37:38.587Z,35.65
2022-12-03T23:40:05.675Z,37.08
2022-12-03T23:42:32.406Z,36.10
2022-12-03T23:44:58.808Z,40.93
2022-12-03T23:47:25.274Z,39.60
2022-12-03T23:49:51.887Z,42.10
2022-12-03T23:52:18.426Z,41.10
2022-12-03T23:54:44.849Z,32.30
2022-12-03T23:57:15.154Z,43.87
2022-12-03T23:59:42.153Z,39.35
